Time;durP1;ratioP1;P1;durP2;ratioP2;P2;SDS_P1;SDS_P2;PMS_P1;PMS_P2;Temp;Humidity;BMP_temperature;BMP_pressure;BME280_temperature;BME280_humidity;BME280_pressure;Samples;Min_cycle;Max_cycle;Signal;HPM_P1;HPM_P2
2023/04/11 00:01:09;;;;;;;5.40;1.33;;;8.40;99.90;;;;;;4939265;29;20051;-80
2023/04/11 00:03:36;;;;;;;7.68;1.30;;;8.30;99.90;;;;;;4957001;28;20043;-80
2023/04/11 00:06:03;;;;;;;17.20;1.80;;;8.30;99.90;;;;;;4955389;29;20490;-80
2023/04/11 00:08:30;;;;;;;9.18;1.50;;;8.30;99.90;;;;;;4937962;29;20122;-80
2023/04/11 00:10:57;;;;;;;3.10;0.93;;;8.30;99.90;;;;;;4939216;29;20056;-80
2023/04/11 00:13:25;;;;;;;7.32;1.55;;;8.30;99.90;;;;;;4955702;28;20107;-80
2023/04/11 00:15:54;;;;;;;8.95;1.33;;;8.20;99.90;;;;;;4956331;29;20521;-81
2023/04/11 00:18:21;;;;;;;10.45;1.38;;;8.30;99.90;;;;;;4956744;29;20061;-81
2023/04/11 00:20:48;;;;;;;10.48;1.33;;;8.20;99.90;;;;;;4955827;28;20065;-80
2023/04/11 00:23:15;;;;;;;8.13;1.52;;;8.20;99.90;;;;;;4924156;29;20047;-81
2023/04/11 00:25:41;;;;;;;8.07;1.20;;;8.10;99.90;;;;;;4956170;29;20043;-80
2023/04/11 00:28:08;;;;;;;11.43;1.60;;;8.10;99.90;;;;;;4938685;29;20039;-81
2023/04/11 00:30:35;;;;;;;7.45;1.60;;;8.10;99.90;;;;;;4956663;28;20102;-80
2023/04/11 00:33:02;;;;;;;8.63;1.33;;;8.10;99.90;;;;;;4955585;29;20058;-80
2023/04/11 00:35:33;;;;;;;4.60;1.25;;;8.10;99.90;;;;;;4939261;29;20077;-80
2023/04/11 00:38:00;;;;;;;13.18;1.30;;;8.10;99.90;;;;;;4939925;29;20059;-80
2023/04/11 00:40:26;;;;;;;5.35;1.20;;;8.10;99.90;;;;;;4955427;29;20039;-80
2023/04/11 00:42:53;;;;;;;12.30;1.45;;;8.10;99.90;;;;;;4939654;29;20039;-80
2023/04/11 00:45:20;;;;;;;7.43;1.38;;;8.00;99.90;;;;;;4939036;29;20071;-80
2023/04/11 00:47:47;;;;;;;10.52;1.58;;;8.00;99.90;;;;;;4955344;28;20071;-81
2023/04/11 00:50:14;;;;;;;13.35;2.45;;;8.00;99.90;;;;;;4923887;29;20389;-80
2023/04/11 00:52:41;;;;;;;5.20;1.38;;;8.00;99.90;;;;;;4938440;29;20365;-81
2023/04/11 00:55:08;;;;;;;9.50;2.10;;;8.00;99.90;;;;;;4939234;28;20043;-81
2023/04/11 00:57:34;;;;;;;8.77;1.25;;;8.00;99.90;;;;;;4939496;29;20043;-81
2023/04/11 01:00:02;;;;;;;8.95;1.52;;;8.00;99.90;;;;;;4941375;29;20040;-81
2023/04/11 01:02:29;;;;;;;10.48;1.58;;;7.90;99.90;;;;;;4937124;29;20053;-80
2023/04/11 01:04:59;;;;;;;5.85;1.10;;;7.90;99.90;;;;;;4920178;29;20047;-81
2023/04/11 01:07:26;;;;;;;6.25;1.17;;;7.90;99.90;;;;;;4919048;29;20062;-80
2023/04/11 01:09:52;;;;;;;7.35;1.25;;;7.90;99.90;;;;;;4920173;29;20378;-80
2023/04/11 01:12:20;;;;;;;12.73;1.60;;;7.90;99.90;;;;;;4937460;29;20502;-81
2023/04/11 01:14:48;;;;;;;8.68;1.63;;;7.90;99.90;;;;;;4918802;29;20427;-81
2023/04/11 01:17:15;;;;;;;8.82;1.48;;;7.90;99.90;;;;;;4904945;29;20044;-81
2023/04/11 01:19:41;;;;;;;8.82;1.60;;;7.90;99.90;;;;;;4919314;29;20277;-81
2023/04/11 01:22:08;;;;;;;8.27;1.52;;;7.90;99.90;;;;;;4920343;29;20048;-81
2023/04/11 01:24:35;;;;;;;11.07;1.60;;;7.80;99.90;;;;;;4919740;29;20051;-81
2023/04/11 01:27:02;;;;;;;14.55;1.60;;;7.90;99.90;;;;;;4918976;29;20047;-80
2023/04/11 01:29:29;;;;;;;8.73;1.85;;;7.90;99.90;;;;;;4904723;29;20099;-80
2023/04/11 01:31:56;;;;;;;11.52;1.90;;;7.90;99.90;;;;;;4920132;29;20043;-81
2023/04/11 01:34:22;;;;;;;8.32;1.30;;;7.90;99.90;;;;;;4903067;29;20063;-81
2023/04/11 01:36:50;;;;;;;13.45;2.15;;;7.80;99.90;;;;;;4936805;29;20044;-81
2023/04/11 01:39:16;;;;;;;7.00;1.02;;;7.80;99.90;;;;;;4904666;29;20371;-80
2023/04/11 01:41:43;;;;;;;15.10;1.58;;;7.90;99.90;;;;;;4918965;29;20456;-81
2023/04/11 01:44:10;;;;;;;17.70;1.95;;;7.90;99.90;;;;;;4919845;29;20522;-80
2023/04/11 01:46:36;;;;;;;11.48;2.00;;;7.90;99.90;;;;;;4903189;29;20146;-81
2023/04/11 01:49:03;;;;;;;7.65;1.45;;;7.90;99.90;;;;;;4919938;29;20040;-81
2023/04/11 01:51:30;;;;;;;11.35;1.85;;;7.90;99.90;;;;;;4904250;29;20062;-81
2023/04/11 01:53:57;;;;;;;9.30;1.73;;;7.90;99.90;;;;;;4903459;29;20043;-80
2023/04/11 01:56:24;;;;;;;11.35;1.50;;;7.90;99.90;;;;;;4939321;29;20103;-80
2023/04/11 01:58:50;;;;;;;7.15;1.30;;;7.90;99.90;;;;;;4912178;29;20145;-81
2023/04/11 02:01:17;;;;;;;13.70;2.00;;;7.90;99.90;;;;;;4941211;29;20082;-81
2023/04/11 02:03:44;;;;;;;16.15;1.90;;;7.90;99.90;;;;;;4942516;29;20075;-81
2023/04/11 02:06:11;;;;;;;11.02;1.35;;;7.90;99.90;;;;;;4924670;29;20055;-80
2023/04/11 02:08:37;;;;;;;10.75;1.50;;;7.80;99.90;;;;;;4942528;29;20035;-81
2023/04/11 02:11:04;;;;;;;8.45;1.80;;;7.90;99.90;;;;;;4942219;29;20138;-81
2023/04/11 02:13:31;;;;;;;14.02;1.90;;;7.80;99.90;;;;;;4925295;29;20355;-80
2023/04/11 02:15:58;;;;;;;8.02;1.30;;;7.80;99.90;;;;;;4958704;29;20035;-81
2023/04/11 02:18:26;;;;;;;13.90;2.97;;;7.80;99.90;;;;;;4959000;29;20048;-81
2023/04/11 02:20:54;;;;;;;8.98;1.40;;;7.80;99.90;;;;;;4941350;28;20062;-81
2023/04/11 02:23:20;;;;;;;8.95;1.80;;;7.70;99.90;;;;;;4941979;29;20050;-81
2023/04/11 02:25:49;;;;;;;11.63;1.90;;;7.70;99.90;;;;;;4941541;29;20078;-80
2023/04/11 02:28:16;;;;;;;16.40;1.80;;;7.80;99.90;;;;;;4924891;29;20468;-81
2023/04/11 02:30:43;;;;;;;11.65;1.48;;;7.70;99.90;;;;;;4941812;29;20142;-80
2023/04/11 02:33:09;;;;;;;13.10;1.67;;;7.80;99.90;;;;;;4957501;28;20097;-81
2023/04/11 02:35:36;;;;;;;8.30;1.48;;;7.70;99.90;;;;;;4958174;29;20054;-81
2023/04/11 02:38:03;;;;;;;10.95;2.03;;;7.70;99.90;;;;;;4958024;28;20066;-81
2023/04/11 02:40:30;;;;;;;7.03;1.38;;;7.70;99.90;;;;;;4940642;29;20082;-81
2023/04/11 02:42:57;;;;;;;4.78;1.33;;;7.70;99.90;;;;;;4926090;29;20392;-81
2023/04/11 02:45:24;;;;;;;12.32;1.77;;;7.70;99.90;;;;;;4958105;28;20126;-80
2023/04/11 02:47:51;;;;;;;10.00;1.92;;;7.70;99.90;;;;;;4940258;28;20038;-80
2023/04/11 02:50:18;;;;;;;13.02;2.42;;;7.70;99.90;;;;;;4958535;28;20047;-80
2023/04/11 02:52:48;;;;;;;9.98;2.15;;;7.70;99.90;;;;;;4940142;29;20064;-81
2023/04/11 02:55:21;;;;;;;7.85;1.30;;;7.60;99.90;;;;;;4941117;29;20054;-80
2023/04/11 02:57:48;;;;;;;5.47;1.35;;;7.60;99.90;;;;;;4941576;29;20055;-80
2023/04/11 03:00:18;;;;;;;8.70;2.33;;;7.60;99.90;;;;;;4939884;29;20487;-81
2023/04/11 03:02:49;;;;;;;7.45;1.40;;;7.60;99.90;;;;;;4941516;29;20106;-80
2023/04/11 03:05:20;;;;;;;5.82;1.50;;;7.60;99.90;;;;;;4940628;28;20054;-80
2023/04/11 03:07:49;;;;;;;10.25;2.53;;;7.60;99.90;;;;;;4939855;29;20078;-80
2023/04/11 03:10:15;;;;;;;5.65;1.23;;;7.60;99.90;;;;;;4941251;29;20051;-81
2023/04/11 03:12:42;;;;;;;16.27;1.92;;;7.60;99.90;;;;;;4939834;28;20057;-81
2023/04/11 03:15:10;;;;;;;17.40;2.00;;;7.50;99.90;;;;;;4940583;29;20114;-81
2023/04/11 03:17:37;;;;;;;14.18;1.40;;;7.50;99.90;;;;;;4940955;29;20062;-80
2023/04/11 03:20:06;;;;;;;13.57;1.60;;;7.50;99.90;;;;;;4939794;29;20043;-81
2023/04/11 03:22:33;;;;;;;5.55;1.08;;;7.50;99.90;;;;;;4940812;29;20047;-80
2023/04/11 03:25:00;;;;;;;7.55;1.50;;;7.50;99.90;;;;;;4940378;29;20105;-80
2023/04/11 03:27:26;;;;;;;7.63;1.52;;;7.40;99.90;;;;;;4955987;28;20423;-80
2023/04/11 03:29:58;;;;;;;14.50;1.57;;;7.40;99.90;;;;;;4940764;29;20501;-80
2023/04/11 03:32:33;;;;;;;9.60;1.45;;;7.40;99.90;;;;;;4925900;29;20294;-80
2023/04/11 03:35:00;;;;;;;9.85;1.48;;;7.40;99.90;;;;;;4938885;29;20051;-80
2023/04/11 03:37:27;;;;;;;3.25;1.30;;;7.40;99.90;;;;;;4940238;29;20043;-81
2023/04/11 03:39:54;;;;;;;8.93;1.17;;;7.40;99.90;;;;;;4939510;29;20474;-82
2023/04/11 03:42:21;;;;;;;10.73;1.90;;;7.40;99.90;;;;;;4940393;29;20452;-81
2023/04/11 03:44:52;;;;;;;6.82;1.42;;;7.40;99.90;;;;;;4940145;29;20051;-80
2023/04/11 03:47:19;;;;;;;8.40;1.67;;;7.40;99.90;;;;;;4939239;29;20047;-80
2023/04/11 03:49:47;;;;;;;6.38;1.20;;;7.40;99.90;;;;;;4940292;29;20355;-80
2023/04/11 03:52:16;;;;;;;11.77;1.70;;;7.40;99.90;;;;;;4940224;29;20039;-80
2023/04/11 03:54:45;;;;;;;14.00;1.63;;;7.30;99.90;;;;;;4938846;28;20043;-80
2023/04/11 03:57:15;;;;;;;13.68;2.00;;;7.30;99.90;;;;;;4940584;29;20058;-80
2023/04/11 03:59:42;;;;;;;16.65;1.90;;;7.30;99.90;;;;;;4939049;29;20047;-80
2023/04/11 04:02:11;;;;;;;5.50;1.50;;;7.20;99.90;;;;;;4924903;29;20043;-80
2023/04/11 04:04:45;;;;;;;5.35;1.27;;;7.20;99.90;;;;;;4939635;29;20069;-80
2023/04/11 04:07:23;;;;;;;10.15;1.27;;;7.20;99.90;;;;;;4939104;29;20126;-80
2023/04/11 04:09:54;;;;;;;10.25;1.60;;;7.20;99.90;;;;;;4925097;29;20043;-81
2023/04/11 04:12:21;;;;;;;4.47;1.27;;;7.20;99.90;;;;;;4939943;29;20124;-80
2023/04/11 04:15:23;;;;;;;11.80;1.25;;;7.10;99.90;;;;;;4940866;29;20047;-81
2023/04/11 04:17:50;;;;;;;13.43;1.25;;;7.10;99.90;;;;;;4939511;29;20055;-80
2023/04/11 04:20:36;;;;;;;14.45;1.77;;;7.00;99.90;;;;;;4925751;29;20082;-80
2023/04/11 04:23:03;;;;;;;9.50;1.13;;;7.00;99.90;;;;;;4939876;29;20389;-80
2023/04/11 04:25:44;;;;;;;6.53;1.08;;;6.90;99.90;;;;;;4924983;28;20047;-80
2023/04/11 04:28:11;;;;;;;7.47;1.40;;;6.90;99.90;;;;;;4938710;29;20058;-80
2023/04/11 04:30:39;;;;;;;7.43;1.30;;;6.90;99.90;;;;;;4924663;29;20332;-80
2023/04/11 04:33:11;;;;;;;7.93;1.48;;;6.90;99.90;;;;;;4923233;29;20056;-80
2023/04/11 04:35:41;;;;;;;6.43;1.48;;;6.90;99.90;;;;;;4939299;29;20056;-80
2023/04/11 04:38:08;;;;;;;10.20;1.55;;;6.80;99.90;;;;;;4939656;28;20051;-80
2023/04/11 04:40:44;;;;;;;9.98;1.20;;;6.80;99.90;;;;;;4938538;29;20110;-81
2023/04/11 04:43:17;;;;;;;8.05;1.55;;;6.80;99.90;;;;;;4939598;29;20047;-80
2023/04/11 04:46:04;;;;;;;4.55;1.13;;;6.70;99.90;;;;;;4925321;29;20051;-80
2023/04/11 04:48:39;;;;;;;9.00;1.35;;;6.70;99.90;;;;;;4939510;29;20106;-80
2023/04/11 04:51:06;;;;;;;6.07;1.27;;;6.70;99.90;;;;;;4923794;29;20058;-80
2023/04/11 04:53:37;;;;;;;4.55;1.42;;;6.60;99.90;;;;;;4923058;29;20426;-80
2023/04/11 04:56:05;;;;;;;5.40;1.00;;;6.60;99.90;;;;;;4939228;29;20053;-80
2023/04/11 04:58:36;;;;;;;8.52;1.35;;;6.50;99.90;;;;;;4939372;29;20074;-80
2023/04/11 05:01:07;;;;;;;4.70;1.10;;;6.50;99.90;;;;;;4938259;29;20501;-81
2023/04/11 05:03:37;;;;;;;9.60;1.30;;;6.50;99.90;;;;;;4939467;29;20051;-80
2023/04/11 05:06:09;;;;;;;15.07;1.73;;;6.40;99.90;;;;;;4938182;29;20134;-80
2023/04/11 05:08:36;;;;;;;8.73;1.65;;;6.40;99.90;;;;;;4956043;29;20047;-80
2023/04/11 05:11:05;;;;;;;11.73;2.10;;;6.40;99.90;;;;;;4939301;29;20043;-81
2023/04/11 05:13:33;;;;;;;4.22;1.02;;;6.40;99.90;;;;;;4938099;29;20496;-80
2023/04/11 05:16:01;;;;;;;13.90;1.58;;;6.40;99.90;;;;;;4938450;29;20386;-80
2023/04/11 05:18:29;;;;;;;7.53;1.45;;;6.40;99.90;;;;;;4939181;29;20063;-80
2023/04/11 05:20:56;;;;;;;8.75;1.17;;;6.30;99.90;;;;;;4938362;29;20130;-80
2023/04/11 05:23:28;;;;;;;6.75;1.08;;;6.30;99.90;;;;;;4939599;29;20056;-80
2023/04/11 05:26:00;;;;;;;6.57;1.10;;;6.30;99.90;;;;;;4955592;28;20107;-81
2023/04/11 05:28:27;;;;;;;10.73;1.42;;;6.30;99.90;;;;;;4923510;28;20106;-80
2023/04/11 05:30:55;;;;;;;14.40;1.77;;;6.30;99.90;;;;;;4941654;29;20054;-80
2023/04/11 05:33:22;;;;;;;5.55;1.20;;;6.30;99.90;;;;;;4941667;29;20051;-80
2023/04/11 05:35:49;;;;;;;4.65;1.33;;;6.30;99.90;;;;;;4942397;29;20035;-80
2023/04/11 05:38:16;;;;;;;9.55;1.30;;;6.40;99.90;;;;;;4959643;29;20047;-80
2023/04/11 05:40:43;;;;;;;6.63;1.40;;;6.40;99.90;;;;;;4941587;29;20047;-81
2023/04/11 05:43:13;;;;;;;4.30;1.40;;;6.40;99.90;;;;;;4942845;29;20130;-81
2023/04/11 05:45:40;;;;;;;6.85;1.60;;;6.50;99.90;;;;;;4942127;29;20059;-81
2023/04/11 05:48:07;;;;;;;5.40;1.23;;;6.60;99.90;;;;;;4941492;29;20465;-81
2023/04/11 05:50:35;;;;;;;6.40;1.15;;;6.70;99.90;;;;;;4942506;29;20047;-81
2023/04/11 05:53:02;;;;;;;17.58;2.03;;;6.80;99.90;;;;;;4925625;29;20386;-81
2023/04/11 05:55:28;;;;;;;10.40;2.05;;;6.80;99.90;;;;;;4926248;29;20470;-81
2023/04/11 05:57:55;;;;;;;10.10;1.73;;;6.90;99.90;;;;;;4942405;29;20058;-80
2023/04/11 06:00:23;;;;;;;7.70;2.50;;;6.90;99.90;;;;;;4941392;29;20118;-80
2023/04/11 06:02:49;;;;;;;9.90;2.03;;;6.90;99.90;;;;;;4942408;29;20067;-80
2023/04/11 06:05:16;;;;;;;8.20;1.63;;;6.90;99.90;;;;;;4958435;28;20385;-80
2023/04/11 06:07:43;;;;;;;12.32;1.80;;;7.00;99.90;;;;;;4940835;29;20456;-80
2023/04/11 06:10:10;;;;;;;8.10;1.48;;;7.00;99.90;;;;;;4942590;28;20039;-80
2023/04/11 06:12:37;;;;;;;8.48;1.67;;;7.10;99.90;;;;;;4959097;28;20086;-81
2023/04/11 06:15:03;;;;;;;12.02;1.80;;;7.20;99.90;;;;;;4957754;29;20043;-81
2023/04/11 06:17:30;;;;;;;9.38;1.52;;;7.30;99.90;;;;;;4958979;28;20055;-82
2023/04/11 06:19:57;;;;;;;6.95;1.58;;;7.40;99.90;;;;;;4957784;29;20073;-80
2023/04/11 06:22:23;;;;;;;2.97;1.20;;;7.40;99.90;;;;;;4958585;28;20051;-80
2023/04/11 06:24:50;;;;;;;16.67;1.63;;;7.50;99.90;;;;;;4941725;29;20051;-80
2023/04/11 06:27:16;;;;;;;13.57;1.65;;;7.60;99.90;;;;;;4941032;29;20106;-79
2023/04/11 06:29:43;;;;;;;8.70;1.67;;;7.70;99.90;;;;;;4941832;29;20071;-80
2023/04/11 06:32:10;;;;;;;11.20;1.90;;;7.70;99.90;;;;;;4942293;29;20047;-80
2023/04/11 06:34:36;;;;;;;4.15;1.00;;;7.80;99.90;;;;;;4940641;29;20058;-80
2023/04/11 06:37:03;;;;;;;9.10;1.52;;;7.90;99.90;;;;;;4958517;28;20075;-80
2023/04/11 06:39:30;;;;;;;10.32;1.35;;;8.00;99.90;;;;;;4940867;29;20058;-80
2023/04/11 06:41:56;;;;;;;4.93;1.25;;;8.10;99.90;;;;;;4941191;29;20043;-80
2023/04/11 06:44:24;;;;;;;7.00;1.65;;;8.10;99.90;;;;;;4941124;29;20055;-80
2023/04/11 06:46:51;;;;;;;6.20;1.38;;;8.20;99.90;;;;;;4956099;28;20418;-83
2023/04/11 06:49:18;;;;;;;8.07;1.60;;;8.30;99.90;;;;;;4956984;29;20063;-83
2023/04/11 06:51:49;;;;;;;9.02;1.35;;;8.40;99.90;;;;;;4926419;28;20051;-82
2023/04/11 06:54:15;;;;;;;5.43;1.27;;;8.50;99.90;;;;;;4939412;29;20051;-83
2023/04/11 06:56:43;;;;;;;5.30;1.33;;;8.60;99.90;;;;;;4924628;29;20047;-84
2023/04/11 06:59:09;;;;;;;5.13;1.65;;;8.70;99.90;;;;;;4925154;29;20054;-84
2023/04/11 07:01:39;;;;;;;10.57;1.40;;;8.80;99.90;;;;;;4944001;29;20039;-83
2023/04/11 07:04:06;;;;;;;10.35;1.38;;;8.90;99.90;;;;;;4955807;29;20061;-83
2023/04/11 07:06:36;;;;;;;7.25;1.65;;;9.00;99.90;;;;;;4939647;29;20055;-83
2023/04/11 07:09:02;;;;;;;6.60;1.45;;;9.10;99.90;;;;;;4956221;29;20043;-84
2023/04/11 07:11:29;;;;;;;8.25;1.50;;;9.20;99.90;;;;;;4956661;29;20073;-83
2023/04/11 07:13:56;;;;;;;9.30;1.35;;;9.30;99.90;;;;;;4954780;29;20053;-84
2023/04/11 07:16:23;;;;;;;12.25;1.92;;;9.40;99.90;;;;;;4940777;29;20039;-84
2023/04/11 07:18:50;;;;;;;11.27;1.42;;;9.40;99.90;;;;;;4956016;29;20051;-85
2023/04/11 07:21:16;;;;;;;7.55;1.15;;;9.60;99.90;;;;;;4939543;29;20047;-84
2023/04/11 07:23:43;;;;;;;8.57;1.30;;;9.60;99.90;;;;;;4955969;29;20520;-83
2023/04/11 07:26:10;;;;;;;5.63;1.52;;;9.70;99.90;;;;;;4939220;29;20051;-81
2023/04/11 07:28:37;;;;;;;8.75;1.45;;;9.80;99.90;;;;;;4957372;28;20036;-83
2023/04/11 07:31:06;;;;;;;7.43;1.23;;;9.90;99.90;;;;;;4956333;29;20055;-85
2023/04/11 07:33:33;;;;;;;8.55;1.70;;;9.90;99.90;;;;;;4953912;29;20438;-85
2023/04/11 07:36:00;;;;;;;10.65;1.40;;;10.00;99.90;;;;;;4956332;29;20043;-88
2023/04/11 07:38:28;;;;;;;10.77;1.65;;;10.20;99.90;;;;;;4956230;29;20537;-82
2023/04/11 07:40:55;;;;;;;6.60;1.23;;;10.30;99.90;;;;;;4954813;29;20050;-87
2023/04/11 07:43:22;;;;;;;9.90;1.65;;;10.30;99.90;;;;;;4956472;29;20047;-84
2023/04/11 07:45:48;;;;;;;7.88;1.08;;;10.40;99.90;;;;;;4955672;29;20047;-84
2023/04/11 07:48:15;;;;;;;7.28;1.58;;;10.50;99.90;;;;;;4954675;29;20147;-84
2023/04/11 07:50:42;;;;;;;8.07;1.77;;;10.60;99.90;;;;;;4955977;29;20062;-83
2023/04/11 07:53:09;;;;;;;5.55;1.33;;;10.60;99.90;;;;;;4954488;28;20047;-87
2023/04/11 07:55:36;;;;;;;5.10;1.30;;;10.70;99.90;;;;;;4955686;29;20083;-86
2023/04/11 07:58:03;;;;;;;10.25;1.50;;;10.90;99.90;;;;;;4955821;29;20118;-86
2023/04/11 08:00:32;;;;;;;8.40;1.70;;;10.90;99.90;;;;;;4940428;29;20739;-84
2023/04/11 08:03:01;;;;;;;11.05;1.20;;;10.90;99.90;;;;;;4939702;29;20375;-84
2023/04/11 08:05:31;;;;;;;7.65;1.42;;;11.00;99.90;;;;;;4940305;29;20054;-86
2023/04/11 08:07:58;;;;;;;8.07;1.30;;;10.90;99.90;;;;;;4923435;29;20055;-88
2023/04/11 08:10:24;;;;;;;9.32;1.85;;;11.00;99.90;;;;;;4923481;29;20386;-87
2023/04/11 08:12:51;;;;;;;7.72;1.60;;;11.20;99.90;;;;;;4923975;28;20367;-86
2023/04/11 08:15:18;;;;;;;10.38;1.40;;;11.30;99.90;;;;;;4940134;29;20533;-86
2023/04/11 08:17:45;;;;;;;9.27;1.95;;;11.50;99.90;;;;;;4924087;29;20043;-87
2023/04/11 08:20:12;;;;;;;10.27;1.42;;;11.40;99.90;;;;;;4939267;29;20047;-86
2023/04/11 08:22:40;;;;;;;12.48;1.90;;;11.30;99.90;;;;;;4940424;29;20039;-87
2023/04/11 08:25:07;;;;;;;6.50;1.42;;;11.30;99.90;;;;;;4940990;29;20142;-86
2023/04/11 08:27:37;;;;;;;9.57;1.60;;;11.30;99.90;;;;;;4925253;29;20087;-87
2023/04/11 08:30:04;;;;;;;9.35;1.20;;;11.40;99.90;;;;;;4942097;29;20142;-88
2023/04/11 08:32:31;;;;;;;10.68;1.50;;;11.60;99.90;;;;;;4927158;29;20489;-90
2023/04/11 08:34:58;;;;;;;5.95;1.60;;;11.90;99.90;;;;;;4902951;28;20142;-89
2023/04/11 08:37:25;;;;;;;9.05;1.90;;;11.80;99.90;;;;;;4822926;29;134918;-90
2023/04/11 08:39:52;;;;;;;9.50;1.63;;;11.70;99.90;;;;;;4897377;29;20048;-89
2023/04/11 08:42:19;;;;;;;8.77;1.48;;;11.80;99.90;;;;;;4884221;29;20052;-90
2023/04/11 08:44:46;;;;;;;7.45;1.67;;;11.80;99.90;;;;;;4890549;29;20052;-91
2023/04/11 08:47:20;;;;;;;11.18;1.30;;;11.90;99.90;;;;;;4880959;29;20365;-89
2023/04/11 08:49:47;;;;;;;7.40;1.30;;;11.80;99.90;;;;;;4917229;29;20040;-89
2023/04/11 08:52:14;;;;;;;7.57;1.55;;;11.80;99.90;;;;;;4886098;29;20040;-89
2023/04/11 08:54:43;;;;;;;8.18;1.30;;;12.00;99.90;;;;;;4900006;29;20059;-90
2023/04/11 08:57:13;;;;;;;11.30;1.60;;;12.20;99.90;;;;;;4885996;29;20048;-89
2023/04/11 08:59:40;;;;;;;6.55;1.67;;;12.40;99.90;;;;;;4896226;29;20370;-89
2023/04/11 09:02:08;;;;;;;7.40;1.40;;;12.50;99.90;;;;;;4896006;29;20052;-91
2023/04/11 09:04:35;;;;;;;7.78;1.30;;;12.20;99.90;;;;;;4900464;29;20467;-90
2023/04/11 09:07:02;;;;;;;11.82;1.52;;;12.20;99.90;;;;;;4922222;29;20107;-91
2023/04/11 09:09:29;;;;;;;11.15;1.63;;;12.30;99.90;;;;;;4920654;29;20048;-92
2023/04/11 09:11:57;;;;;;;7.15;1.20;;;12.60;99.90;;;;;;4889928;29;20048;-90
2023/04/11 09:14:24;;;;;;;8.65;1.38;;;12.90;99.90;;;;;;4907189;29;20056;-88
2023/04/11 09:16:51;;;;;;;5.50;1.30;;;12.80;99.90;;;;;;4924106;29;20044;-91
2023/04/11 09:19:18;;;;;;;7.20;1.67;;;12.70;99.90;;;;;;4924015;29;20044;-86
2023/04/11 09:21:44;;;;;;;7.40;1.27;;;12.70;99.90;;;;;;4923343;29;20051;-89
2023/04/11 09:24:11;;;;;;;7.88;1.73;;;12.60;99.90;;;;;;4923328;29;20142;-86
2023/04/11 09:26:38;;;;;;;8.15;1.33;;;12.80;99.90;;;;;;4907242;29;20047;-88
2023/04/11 09:29:05;;;;;;;6.32;1.25;;;12.70;99.90;;;;;;4903290;29;20044;-84
2023/04/11 09:31:32;;;;;;;14.07;1.83;;;12.60;99.90;;;;;;4893794;29;20071;-84
2023/04/11 09:33:59;;;;;;;5.55;1.23;;;12.50;99.90;;;;;;4916810;29;20055;-87
2023/04/11 09:36:27;;;;;;;8.23;1.38;;;12.40;99.90;;;;;;4901706;29;20049;-87
2023/04/11 09:38:54;;;;;;;8.80;1.30;;;12.30;99.90;;;;;;4903641;29;20052;-87
2023/04/11 09:41:21;;;;;;;12.18;1.83;;;12.50;99.90;;;;;;4895087;29;20044;-87
2023/04/11 09:43:49;;;;;;;4.38;1.17;;;12.90;99.90;;;;;;4899479;29;20049;-86
2023/04/11 09:46:19;;;;;;;9.40;1.50;;;12.80;99.90;;;;;;4901308;29;20139;-87
2023/04/11 09:48:46;;;;;;;10.25;1.45;;;12.90;99.90;;;;;;4901258;29;20072;-86
2023/04/11 09:51:12;;;;;;;5.03;1.17;;;13.10;99.90;;;;;;4904079;29;20048;-87
2023/04/11 09:53:53;;;;;;;7.40;1.33;;;13.80;99.90;;;;;;4897488;29;20051;-86
2023/04/11 09:56:20;;;;;;;5.43;1.10;;;14.00;99.90;;;;;;4886413;29;20048;-83
2023/04/11 09:58:48;;;;;;;8.63;1.48;;;14.00;99.90;;;;;;4896688;29;20522;-84
2023/04/11 10:01:15;;;;;;;9.95;2.00;;;14.00;99.90;;;;;;4887396;29;20056;-83
2023/04/11 10:03:42;;;;;;;9.10;1.50;;;14.10;99.90;;;;;;4903606;29;20143;-83
2023/04/11 10:06:10;;;;;;;5.20;1.30;;;14.10;99.90;;;;;;4902957;29;20139;-83
2023/04/11 10:08:36;;;;;;;9.05;1.60;;;14.40;99.90;;;;;;4902974;29;20056;-84
2023/04/11 10:11:03;;;;;;;9.35;1.23;;;14.40;99.90;;;;;;4903371;29;20036;-88
2023/04/11 10:13:30;;;;;;;6.40;0.98;;;14.40;99.90;;;;;;4902660;29;20052;-84
2023/04/11 10:15:56;;;;;;;5.53;1.25;;;14.20;99.90;;;;;;4902134;29;20111;-84
2023/04/11 10:18:23;;;;;;;4.65;1.17;;;13.80;99.90;;;;;;4895638;29;20084;-85
2023/04/11 10:20:50;;;;;;;6.57;1.23;;;13.40;99.90;;;;;;4889930;29;20052;-84
2023/04/11 10:23:16;;;;;;;5.95;1.30;;;13.40;99.90;;;;;;4902362;29;20044;-84
2023/04/11 10:25:43;;;;;;;5.55;1.38;;;13.60;99.90;;;;;;4903762;29;20059;-87
2023/04/11 10:28:10;;;;;;;5.40;1.15;;;13.80;99.90;;;;;;4902619;29;20052;-85
2023/04/11 10:30:36;;;;;;;5.97;1.45;;;13.80;99.90;;;;;;4887454;29;20036;-84
2023/04/11 10:33:03;;;;;;;8.02;1.70;;;13.80;99.90;;;;;;4902673;29;20051;-86
2023/04/11 10:35:30;;;;;;;5.07;1.63;;;14.00;99.90;;;;;;4919214;29;20131;-86
2023/04/11 10:37:57;;;;;;;3.35;1.00;;;13.80;99.90;;;;;;4887432;29;20040;-86
2023/04/11 10:40:24;;;;;;;4.13;1.33;;;13.70;99.90;;;;;;4887163;29;20103;-86
2023/04/11 10:42:51;;;;;;;7.45;1.20;;;13.70;99.90;;;;;;4887747;29;20044;-87
2023/04/11 10:45:18;;;;;;;5.55;1.52;;;13.50;99.90;;;;;;4886949;29;20059;-86
2023/04/11 10:47:45;;;;;;;4.90;1.35;;;13.40;99.90;;;;;;4901721;29;20095;-87
2023/04/11 10:50:15;;;;;;;7.80;1.55;;;13.80;99.90;;;;;;4887556;29;20040;-88
2023/04/11 10:52:41;;;;;;;11.85;1.55;;;13.90;99.90;;;;;;4903084;29;20444;-87
2023/04/11 10:55:08;;;;;;;9.48;1.50;;;14.00;99.90;;;;;;4887499;29;20059;-87
2023/04/11 10:57:35;;;;;;;7.00;1.33;;;14.00;99.90;;;;;;4902993;29;20056;-88
2023/04/11 11:00:08;;;;;;;5.25;1.35;;;13.80;99.90;;;;;;4890487;29;20051;-88
2023/04/11 11:02:36;;;;;;;7.53;1.45;;;13.70;99.90;;;;;;4887287;29;20052;-86
2023/04/11 11:05:03;;;;;;;8.27;1.80;;;13.70;99.90;;;;;;4886558;29;20043;-87
2023/04/11 11:07:30;;;;;;;9.63;1.30;;;13.70;99.90;;;;;;4901436;29;20056;-92
2023/04/11 11:09:57;;;;;;;7.57;1.33;;;13.60;99.90;;;;;;4902468;29;20052;-88
2023/04/11 11:12:24;;;;;;;18.88;1.50;;;13.80;99.90;;;;;;4902862;29;20129;-85
2023/04/11 11:14:50;;;;;;;6.07;1.40;;;14.10;99.90;;;;;;4932988;29;20059;-87
2023/04/11 11:17:17;;;;;;;6.88;1.30;;;14.40;99.90;;;;;;4922167;29;20139;-85
2023/04/11 11:19:44;;;;;;;7.25;1.75;;;14.60;99.90;;;;;;4937331;29;20463;-86
2023/04/11 11:22:11;;;;;;;8.80;1.90;;;14.80;99.90;;;;;;4921655;29;20054;-86
2023/04/11 11:24:37;;;;;;;8.45;1.85;;;14.50;99.90;;;;;;4906417;29;20047;-87
2023/04/11 11:27:04;;;;;;;8.32;1.27;;;14.30;99.90;;;;;;4921267;29;20051;-87
2023/04/11 11:29:31;;;;;;;14.50;1.40;;;14.20;99.90;;;;;;4938378;29;20039;-89
2023/04/11 11:31:57;;;;;;;7.82;1.20;;;14.00;99.90;;;;;;4913415;29;20100;-85
2023/04/11 11:37:10;;;;;;;6.22;1.30;;;14.50;99.90;;;;;;4892945;29;20052;-88
2023/04/11 11:39:37;;;;;;;10.45;1.50;;;15.00;99.90;;;;;;4882864;29;20127;-85
2023/04/11 11:42:04;;;;;;;5.32;1.20;;;15.00;99.90;;;;;;4899874;29;20100;-87
2023/04/11 11:44:30;;;;;;;7.75;1.55;;;14.90;99.90;;;;;;4900819;29;20063;-88
2023/04/11 11:46:57;;;;;;;7.43;1.25;;;14.70;99.90;;;;;;4901556;29;20044;-90
2023/04/11 11:49:24;;;;;;;7.80;1.55;;;14.50;99.90;;;;;;4901886;29;20040;-88
2023/04/11 11:51:52;;;;;;;13.20;1.80;;;14.50;99.90;;;;;;4902221;29;20055;-87
2023/04/11 11:54:19;;;;;;;7.05;1.50;;;14.60;99.90;;;;;;4895223;29;20075;-88
2023/04/11 11:56:45;;;;;;;9.18;1.88;;;14.40;99.90;;;;;;4921067;29;20048;-90
2023/04/11 11:59:12;;;;;;;6.63;1.83;;;14.40;99.90;;;;;;4929225;29;20063;-88
2023/04/11 12:01:40;;;;;;;6.03;1.48;;;14.10;99.90;;;;;;4875072;29;20411;-83
2023/04/11 12:04:10;;;;;;;9.57;1.60;;;14.20;99.90;;;;;;4908722;29;20044;-82
2023/04/11 12:06:37;;;;;;;7.13;1.42;;;14.30;99.90;;;;;;4913978;29;20098;-82
2023/04/11 12:09:04;;;;;;;6.68;1.40;;;14.30;99.90;;;;;;4901519;29;20048;-82
2023/04/11 12:11:30;;;;;;;7.47;1.60;;;14.30;99.90;;;;;;4886016;29;20070;-82
2023/04/11 12:13:57;;;;;;;6.90;1.70;;;14.40;99.90;;;;;;4915818;29;20159;-82
2023/04/11 12:16:24;;;;;;;11.23;1.85;;;14.60;99.90;;;;;;4901552;29;20048;-82
2023/04/11 12:18:51;;;;;;;10.40;2.15;;;14.70;99.90;;;;;;4884219;29;20061;-81
2023/04/11 12:21:18;;;;;;;9.20;2.22;;;14.80;99.90;;;;;;4896723;29;20055;-82
2023/04/11 12:23:45;;;;;;;13.43;1.70;;;14.70;99.90;;;;;;4885993;29;20357;-84
2023/04/11 12:26:12;;;;;;;9.40;1.50;;;14.70;99.90;;;;;;4900058;29;20067;-83
2023/04/11 12:28:39;;;;;;;13.13;1.90;;;14.70;99.90;;;;;;4901163;29;20103;-81
2023/04/11 12:31:05;;;;;;;15.18;1.85;;;14.50;99.90;;;;;;4917989;29;20047;-84
2023/04/11 12:33:32;;;;;;;9.70;1.70;;;14.40;99.90;;;;;;4900510;29;20076;-83
2023/04/11 12:35:59;;;;;;;12.98;1.80;;;14.30;99.90;;;;;;4917348;29;20044;-83
2023/04/11 12:38:26;;;;;;;8.18;1.70;;;13.90;99.90;;;;;;4901002;29;20040;-84
2023/04/11 12:40:53;;;;;;;9.70;2.28;;;13.90;99.90;;;;;;4917282;29;20523;-84
2023/04/11 12:43:39;;;;;;;13.35;1.80;;;13.90;99.90;;;;;;4903349;29;20047;-84
2023/04/11 12:46:08;;;;;;;9.20;2.08;;;13.90;99.90;;;;;;4899513;29;20383;-82
2023/04/11 12:48:35;;;;;;;9.30;1.73;;;14.10;99.90;;;;;;4900413;29;20052;-83
2023/04/11 12:51:01;;;;;;;9.63;1.77;;;14.30;99.90;;;;;;4900037;29;20036;-82
2023/04/11 12:53:28;;;;;;;11.77;2.00;;;14.40;99.90;;;;;;4916410;29;20353;-82
2023/04/11 12:55:55;;;;;;;6.65;1.88;;;14.50;99.90;;;;;;4900874;29;20474;-82